Time;durP1;ratioP1;P1;durP2;ratioP2;P2;SDS_P1;SDS_P2;PMS_P1;PMS_P2;Temp;Humidity;BMP_temperature;BMP_pressure;BME280_temperature;BME280_humidity;BME280_pressure;Samples;Min_cycle;Max_cycle;Signal;HPM_P1;HPM_P2
2022/11/05 00:10:37;;;;;;;62.55;41.85;;;;;;;13.25;100.00;99481.78;5117635;27;20043;-71
2022/11/05 00:18:32;;;;;;;57.83;40.97;;;;;;;13.35;100.00;99489.69;5121305;27;20050;-66
2022/11/05 00:20:57;;;;;;;62.47;42.45;;;;;;;13.26;100.00;99488.84;5113654;27;20035;-66
2022/11/05 00:26:10;;;;;;;56.58;41.53;;;;;;;13.24;100.00;99498.97;5123530;27;20037;-66
2022/11/05 00:28:36;;;;;;;58.97;39.90;;;;;;;13.22;100.00;99492.06;5111027;27;20086;-66
2022/11/05 00:31:04;;;;;;;58.75;40.60;;;;;;;13.16;100.00;99498.97;5120684;27;20028;-65
2022/11/05 00:33:30;;;;;;;60.92;41.45;;;;;;;13.15;100.00;99489.22;5118229;27;20027;-66
2022/11/05 00:35:55;;;;;;;59.22;40.25;;;;;;;13.13;100.00;99498.47;5121250;27;20035;-66
2022/11/05 00:38:21;;;;;;;56.95;39.47;;;;;;;13.20;100.00;99496.78;5125268;27;20478;-66
2022/11/05 00:40:46;;;;;;;61.85;38.58;;;;;;;13.23;100.00;99494.56;5115965;27;20031;-66
2022/11/05 00:45:56;;;;;;;54.35;37.70;;;;;;;13.09;100.00;99500.66;5122022;27;20123;-71
2022/11/05 00:51:06;;;;;;;57.80;38.47;;;;;;;13.05;100.00;99507.41;5114952;27;20030;-70
2022/11/05 00:53:33;;;;;;;53.38;37.42;;;;;;;13.06;100.00;99505.56;5124464;27;20031;-70
2022/11/05 00:55:59;;;;;;;60.22;39.10;;;;;;;13.03;100.00;99505.91;5115274;27;20106;-70
2022/11/05 00:58:26;;;;;;;53.80;38.42;;;;;;;12.95;100.00;99501.31;5111904;27;20034;-70
2022/11/05 01:00:56;;;;;;;60.55;40.70;;;;;;;13.00;100.00;99512.44;5112112;27;20062;-69
2022/11/05 01:03:24;;;;;;;54.10;37.05;;;;;;;13.04;100.00;99508.41;5120346;27;20027;-70
2022/11/05 01:05:55;;;;;;;54.42;37.30;;;;;;;13.00;100.00;99517.00;5120451;27;20382;-70
2022/11/05 01:08:23;;;;;;;58.97;39.45;;;;;;;12.90;100.00;99500.97;5111404;27;20027;-70
2022/11/05 01:10:54;;;;;;;56.53;38.13;;;;;;;12.91;100.00;99505.38;5113486;27;20111;-70
2022/11/05 01:13:26;;;;;;;58.05;38.88;;;;;;;12.94;100.00;99498.81;5110942;27;20047;-70
2022/11/05 01:15:52;;;;;;;63.88;40.70;;;;;;;12.94;100.00;99491.59;5116726;27;20035;-70
2022/11/05 01:18:19;;;;;;;57.10;39.67;;;;;;;12.98;100.00;99487.53;5112107;27;20434;-70
2022/11/05 01:20:45;;;;;;;58.08;39.17;;;;;;;12.94;100.00;99498.81;5124860;27;20027;-70
2022/11/05 01:23:10;;;;;;;56.10;38.05;;;;;;;12.93;100.00;99497.94;5111657;27;20130;-70
2022/11/05 01:25:36;;;;;;;53.20;37.88;;;;;;;12.97;100.00;99495.78;5118328;27;20027;-71
2022/11/05 01:28:02;;;;;;;59.00;38.08;;;;;;;13.01;100.00;99500.69;5117285;27;20046;-70
2022/11/05 01:30:28;;;;;;;58.90;38.72;;;;;;;12.97;100.00;99493.91;5110933;27;20440;-70
2022/11/05 01:32:53;;;;;;;56.45;38.65;;;;;;;12.94;100.00;99504.19;5112456;27;20086;-70
2022/11/05 01:35:19;;;;;;;55.78;38.85;;;;;;;12.95;100.00;99497.78;5127867;27;20023;-70
2022/11/05 01:37:45;;;;;;;54.90;36.75;;;;;;;12.90;100.00;99513.63;5120639;27;20122;-70
2022/11/05 01:40:17;;;;;;;57.25;37.95;;;;;;;12.90;100.00;99502.84;5109428;27;20024;-70
2022/11/05 01:42:43;;;;;;;59.33;37.88;;;;;;;13.07;100.00;99510.78;5124081;27;20043;-70
2022/11/05 01:45:17;;;;;;;56.83;38.25;;;;;;;13.06;100.00;99524.41;5120289;27;20106;-70
2022/11/05 01:47:57;;;;;;;56.72;38.38;;;;;;;13.07;100.00;99523.38;5119620;27;20018;-71
2022/11/05 01:50:40;;;;;;;56.75;37.97;;;;;;;12.96;100.00;99513.75;5118220;27;20065;-70
2022/11/05 01:53:25;;;;;;;59.85;38.17;;;;;;;12.87;100.00;99513.94;5107156;28;20031;-70
2022/11/05 01:56:09;;;;;;;59.53;38.25;;;;;;;12.89;100.00;99511.91;5112398;27;20053;-70
2022/11/05 01:58:44;;;;;;;59.90;40.00;;;;;;;12.79;100.00;99508.56;5112399;27;20042;-70
2022/11/05 02:01:11;;;;;;;56.55;39.17;;;;;;;12.76;100.00;99508.88;5106561;28;20470;-70
2022/11/05 02:03:37;;;;;;;52.33;37.33;;;;;;;12.79;100.00;99520.16;5111176;27;20027;-71
2022/11/05 02:06:03;;;;;;;58.10;39.55;;;;;;;12.83;100.00;99520.69;5112823;27;20509;-70
2022/11/05 02:08:50;;;;;;;59.63;38.10;;;;;;;12.94;100.00;99526.56;5107939;28;20029;-70
2022/11/05 02:11:18;;;;;;;54.47;37.75;;;;;;;12.77;100.00;99513.28;5118467;27;20070;-70
2022/11/05 02:13:43;;;;;;;63.22;40.63;;;;;;;12.67;100.00;99512.59;5115259;27;20107;-71
2022/11/05 02:16:26;;;;;;;59.30;39.53;;;;;;;12.64;100.00;99504.88;5121336;27;20182;-70
2022/11/05 02:19:02;;;;;;;50.92;37.40;;;;;;;12.56;100.00;99505.69;5118272;27;20035;-71
2022/11/05 02:21:43;;;;;;;50.03;35.05;;;;;;;12.59;100.00;99512.59;5111652;28;20113;-70
2022/11/05 02:24:36;;;;;;;52.35;35.33;;;;;;;12.60;100.00;99515.09;5118395;28;20031;-65
2022/11/05 02:27:30;;;;;;;54.88;37.28;;;;;;;12.56;100.00;99510.22;5110171;28;20650;-65
2022/11/05 02:30:04;;;;;;;52.42;36.10;;;;;;;12.54;100.00;99512.25;5117905;28;20104;-65
2022/11/05 02:32:30;;;;;;;53.38;36.33;;;;;;;12.57;100.00;99510.06;5110385;27;20027;-70
2022/11/05 02:35:19;;;;;;;51.78;35.55;;;;;;;12.65;100.00;99510.09;5118700;27;20038;-70
2022/11/05 02:37:51;;;;;;;51.30;35.70;;;;;;;12.57;100.00;99498.44;5115904;27;20050;-70
2022/11/05 02:40:21;;;;;;;52.80;36.05;;;;;;;12.58;100.00;99503.66;5109365;28;20031;-70
2022/11/05 02:42:52;;;;;;;48.17;34.75;;;;;;;12.56;100.00;99499.47;5112808;28;20027;-70
2022/11/05 02:45:39;;;;;;;49.97;36.13;;;;;;;12.54;100.00;99502.31;5118576;28;21964;-70
2022/11/05 02:48:28;;;;;;;48.08;34.90;;;;;;;12.54;100.00;99502.31;5110980;28;20027;-70
2022/11/05 02:51:15;;;;;;;49.08;35.38;;;;;;;12.52;100.00;99498.13;5106580;28;20032;-70
2022/11/05 02:53:49;;;;;;;51.78;37.00;;;;;;;12.53;100.00;99510.56;5112443;28;20416;-70
2022/11/05 02:56:25;;;;;;;47.72;35.03;;;;;;;12.59;100.00;99515.28;5114426;28;20023;-70
2022/11/05 02:58:51;;;;;;;48.85;33.95;;;;;;;12.63;100.00;99524.69;5116986;27;20032;-70
2022/11/05 03:01:16;;;;;;;48.28;33.17;;;;;;;12.57;100.00;99520.81;5111332;28;20034;-70
2022/11/05 03:03:49;;;;;;;46.35;32.60;;;;;;;12.49;100.00;99509.22;5120635;28;20023;-69
2022/11/05 03:06:39;;;;;;;41.80;30.20;;;;;;;12.51;100.00;99507.22;5126291;27;20092;-70
2022/11/05 03:09:31;;;;;;;34.47;25.80;;;;;;;12.47;100.00;99497.78;5109854;28;20062;-70
2022/11/05 03:12:33;;;;;;;23.08;17.33;;;;;;;12.59;100.00;99513.44;5105919;28;20035;-71
2022/11/05 03:15:13;;;;;;;19.55;13.95;;;;;;;12.48;100.00;99519.13;5104753;28;20096;-70
2022/11/05 03:17:41;;;;;;;15.15;12.20;;;;;;;12.54;100.00;99533.78;5104805;28;20499;-70
2022/11/05 03:20:14;;;;;;;10.45;9.32;;;;;;;12.40;100.00;99526.34;5108080;28;20040;-71
2022/11/05 03:22:48;;;;;;;13.52;9.98;;;;;;;12.27;100.00;99528.66;5106940;28;20390;-71
2022/11/05 03:25:16;;;;;;;;;;;;;;;12.23;100.00;99538.94;5106743;28;20110;-65
2022/11/05 03:27:46;;;;;;;10.55;8.55;;;;;;;12.19;100.00;99540.22;5113057;27;20370;-65
2022/11/05 03:30:14;;;;;;;9.07;7.65;;;;;;;12.22;100.00;99539.91;5114295;27;20027;-65
2022/11/05 03:32:48;;;;;;;8.77;6.72;;;;;;;12.17;100.00;99547.66;5109027;27;20368;-65
2022/11/05 03:35:20;;;;;;;9.13;6.95;;;;;;;12.31;100.00;99557.75;5109634;27;20107;-65
2022/11/05 03:37:49;;;;;;;7.07;5.50;;;;;;;12.16;100.00;99562.06;5110135;27;20035;-65
2022/11/05 03:40:17;;;;;;;7.95;6.60;;;;;;;12.06;100.00;99563.22;5110816;27;20036;-65
2022/11/05 03:42:48;;;;;;;10.57;6.20;;;;;;;11.99;100.00;99567.56;5114565;27;20110;-65
2022/11/05 03:45:29;;;;;;;8.95;6.13;;;;;;;12.04;100.00;99571.44;5109100;27;20081;-65
2022/11/05 03:47:59;;;;;;;7.00;5.70;;;;;;;11.95;100.00;99560.81;5112600;27;20086;-65
2022/11/05 03:50:41;;;;;;;7.03;6.32;;;;;;;11.83;100.00;99564.81;5116895;27;20135;-65
2022/11/05 03:53:20;;;;;;;6.32;5.55;;;;;;;11.79;100.00;99561.59;5110296;27;20062;-65
2022/11/05 03:56:12;;;;;;;6.93;5.70;;;;;;;11.74;100.00;99560.41;5112973;27;20023;-65
2022/11/05 03:58:42;;;;;;;6.78;6.05;;;;;;;11.74;100.00;99561.25;5115138;27;20474;-70
2022/11/05 04:01:08;;;;;;;7.30;6.13;;;;;;;11.67;100.00;99567.41;5109635;27;20439;-70
2022/11/05 04:03:35;;;;;;;14.68;6.20;;;;;;;11.68;100.00;99574.47;5113561;27;20084;-70
2022/11/05 04:14:15;;;;;;;8.90;6.68;;;;;;;11.49;100.00;99556.72;5110155;27;20450;-70
2022/11/05 04:24:53;;;;;;;7.13;6.22;;;;;;;11.46;100.00;99576.66;5114193;27;20034;-70
2022/11/05 04:27:18;;;;;;;8.73;6.00;;;;;;;11.38;100.00;99579.28;5109627;27;20417;-70
2022/11/05 04:32:27;;;;;;;7.32;6.63;;;;;;;11.38;100.00;99590.03;5119615;27;20079;-70
2022/11/05 04:34:53;;;;;;;7.60;6.03;;;;;;;11.36;100.00;99589.31;5113031;27;20469;-70
2022/11/05 04:37:18;;;;;;;7.85;6.70;;;;;;;11.57;100.00;99585.47;5121182;27;20024;-70
2022/11/05 04:39:44;;;;;;;9.23;6.93;;;;;;;11.42;100.00;99594.06;5117239;27;20027;-70
2022/11/05 04:42:09;;;;;;;7.78;6.35;;;;;;;11.38;100.00;99590.03;5124135;27;20711;-70
2022/11/05 04:44:35;;;;;;;8.10;6.78;;;;;;;11.30;100.00;99583.75;5112910;27;20023;-70
2022/11/05 04:47:00;;;;;;;8.82;6.90;;;;;;;11.27;100.00;99584.94;5122312;27;20032;-70
2022/11/05 04:49:26;;;;;;;9.05;7.38;;;;;;;11.34;100.00;99585.97;5117921;27;20019;-70
2022/11/05 04:51:51;;;;;;;8.35;6.93;;;;;;;11.29;100.00;99580.22;5116450;27;20023;-70
2022/11/05 04:54:16;;;;;;;7.22;6.40;;;;;;;11.25;100.00;99588.75;5110705;27;20111;-70
2022/11/05 04:56:42;;;;;;;8.02;6.70;;;;;;;11.19;100.00;99592.91;5112979;27;20042;-70
2022/11/05 04:59:07;;;;;;;8.15;7.15;;;;;;;11.17;100.00;99597.59;5111135;27;20031;-70
2022/11/05 05:01:32;;;;;;;7.93;6.88;;;;;;;11.13;100.00;99590.84;5110493;27;20023;-69
2022/11/05 05:03:58;;;;;;;9.00;6.63;;;;;;;11.19;100.00;99573.28;5110310;27;20035;-69
2022/11/05 05:06:23;;;;;;;8.02;6.78;;;;;;;11.24;100.00;99592.44;5111289;27;20031;-69
2022/11/05 05:08:50;;;;;;;9.02;6.32;;;;;;;11.14;100.00;99578.28;5112496;27;20019;-69
2022/11/05 05:11:18;;;;;;;7.85;7.05;;;;;;;11.06;100.00;99578.22;5105747;27;20031;-70
2022/11/05 05:13:43;;;;;;;8.82;7.20;;;;;;;10.96;100.00;99572.94;5118432;27;20048;-70
2022/11/05 05:16:23;;;;;;;7.75;6.95;;;;;;;11.02;100.00;99593.78;5124570;27;20043;-70
2022/11/05 05:18:49;;;;;;;8.35;7.10;;;;;;;11.05;100.00;99600.66;5112565;27;20040;-69
2022/11/05 05:23:59;;;;;;;8.57;6.97;;;;;;;11.07;100.00;99596.00;5108950;27;20047;-69
2022/11/05 05:26:25;;;;;;;8.93;7.63;;;;;;;10.98;100.00;99596.91;5124710;27;20031;-69
2022/11/05 05:28:52;;;;;;;8.63;7.32;;;;;;;10.99;100.00;99601.28;5122870;27;20047;-69
2022/11/05 05:31:18;;;;;;;8.85;7.13;;;;;;;11.01;100.00;99594.78;5108482;28;20034;-69
2022/11/05 05:33:43;;;;;;;7.95;7.15;;;;;;;10.91;100.00;99594.03;5106067;28;20474;-69
2022/11/05 05:36:09;;;;;;;8.38;7.35;;;;;;;10.88;100.00;99594.34;5109505;27;20035;-70
2022/11/05 05:38:34;;;;;;;10.82;7.75;;;;;;;10.80;100.00;99594.25;5118214;27;20035;-69
2022/11/05 05:41:00;;;;;;;7.93;7.15;;;;;;;10.90;100.00;99596.88;5119832;27;20027;-70
2022/11/05 05:43:32;;;;;;;8.93;7.50;;;;;;;10.89;100.00;99617.47;5107852;27;20114;-69
2022/11/05 05:46:06;;;;;;;9.38;7.57;;;;;;;10.85;100.00;99624.16;5111606;27;20043;-69
2022/11/05 05:48:32;;;;;;;9.25;7.57;;;;;;;10.87;100.00;99638.22;5107923;27;20028;-70
2022/11/05 05:51:06;;;;;;;9.90;8.20;;;;;;;10.92;100.00;99644.00;5111328;27;20406;-69
2022/11/05 05:53:32;;;;;;;9.10;8.20;;;;;;;10.94;100.00;99646.53;5115786;27;20447;-70
2022/11/05 05:55:59;;;;;;;10.27;8.10;;;;;;;10.84;100.00;99660.00;5111525;27;20035;-69
2022/11/05 05:58:26;;;;;;;9.35;8.40;;;;;;;10.71;100.00;99646.13;5115625;27;20048;-70
2022/11/05 06:00:52;;;;;;;10.35;9.10;;;;;;;10.76;100.00;99656.38;5122328;27;20032;-70
2022/11/05 06:03:17;;;;;;;11.38;8.98;;;;;;;10.73;100.00;99660.22;5115336;27;20070;-69
2022/11/05 06:05:43;;;;;;;10.60;9.50;;;;;;;10.70;100.00;99665.88;5118450;27;20557;-70
2022/11/05 06:08:08;;;;;;;10.68;9.27;;;;;;;10.86;100.00;99662.53;5115453;27;20033;-69
2022/11/05 06:10:34;;;;;;;10.45;9.00;;;;;;;10.86;100.00;99666.06;5106218;27;20087;-69
2022/11/05 06:12:59;;;;;;;9.13;7.95;;;;;;;10.82;100.00;99663.84;5114643;27;20423;-69
2022/11/05 06:15:25;;;;;;;10.18;8.85;;;;;;;10.78;100.00;99665.13;5116257;27;20036;-70
2022/11/05 06:17:50;;;;;;;9.90;8.77;;;;;;;10.76;100.00;99669.81;5118391;27;20099;-70
2022/11/05 06:20:17;;;;;;;10.38;9.38;;;;;;;10.69;100.00;99666.03;5110333;27;20055;-69
2022/11/05 06:22:43;;;;;;;9.82;8.82;;;;;;;10.73;100.00;99679.00;5108044;28;20046;-70
2022/11/05 06:25:08;;;;;;;9.63;8.40;;;;;;;10.86;100.00;99668.75;5112014;27;20037;-70
2022/11/05 06:27:35;;;;;;;8.93;7.90;;;;;;;10.85;100.00;99683.16;5115021;27;20395;-70
2022/11/05 06:30:02;;;;;;;9.27;7.35;;;;;;;10.81;100.00;99681.75;5114877;27;20058;-70
2022/11/05 06:32:29;;;;;;;10.20;8.35;;;;;;;10.87;100.00;99689.19;5113526;27;20036;-70
2022/11/05 06:34:54;;;;;;;8.50;7.63;;;;;;;10.79;100.00;99699.00;5110559;27;20039;-70
2022/11/05 06:37:20;;;;;;;10.02;7.22;;;;;;;10.68;100.00;99700.06;5114451;28;20054;-69
2022/11/05 06:39:45;;;;;;;9.15;8.20;;;;;;;10.75;100.00;99713.72;5117290;27;20062;-70
2022/11/05 06:42:11;;;;;;;10.57;8.05;;;;;;;10.71;100.00;99712.34;5125430;28;20080;-69
2022/11/05 06:44:36;;;;;;;11.65;8.88;;;;;;;10.63;100.00;99707.72;5109496;27;20055;-70
2022/11/05 06:47:02;;;;;;;11.10;9.27;;;;;;;10.68;100.00;99715.31;5111583;27;20046;-70
2022/11/05 06:49:27;;;;;;;14.70;9.45;;;;;;;10.79;100.00;99718.63;5115266;27;20031;-70
2022/11/05 07:04:05;;;;;;;9.52;8.55;;;;;;;10.61;100.00;99720.41;5124791;27;20763;-69
2022/11/05 07:06:31;;;;;;;9.38;8.43;;;;;;;10.74;100.00;99725.44;5124162;27;20032;-69
2022/11/05 07:08:56;;;;;;;9.73;7.43;;;;;;;10.63;100.00;99733.69;5122723;28;20457;-70
2022/11/05 07:11:21;;;;;;;8.77;7.88;;;;;;;10.64;100.00;99722.81;5124164;27;20031;-69
2022/11/05 07:13:47;;;;;;;11.35;9.05;;;;;;;10.61;100.00;99733.00;5124558;27;20072;-70
2022/11/05 07:16:12;;;;;;;14.32;8.98;;;;;;;10.64;100.00;99728.16;5125193;27;20525;-70
2022/11/05 07:18:37;;;;;;;10.43;7.60;;;;;;;10.73;100.00;99739.84;5122551;28;20031;-70
2022/11/05 07:21:03;;;;;;;8.60;7.38;;;;;;;10.62;100.00;99742.72;5124897;27;20023;-69
2022/11/05 07:23:28;;;;;;;10.02;7.47;;;;;;;10.56;100.00;99729.91;5122893;27;20469;-69
2022/11/05 07:25:54;;;;;;;9.82;7.85;;;;;;;10.55;100.00;99737.09;5125029;27;20032;-70
2022/11/05 07:28:19;;;;;;;8.45;7.57;;;;;;;10.53;100.00;99735.56;5124287;27;20019;-69
2022/11/05 07:30:45;;;;;;;7.88;7.07;;;;;;;10.76;100.00;99751.13;5123904;27;20047;-69
2022/11/05 07:33:10;;;;;;;8.30;7.35;;;;;;;10.65;100.00;99745.97;5124511;27;20089;-69
2022/11/05 07:35:36;;;;;;;10.63;7.43;;;;;;;10.51;100.00;99757.16;5123905;27;20043;-69
2022/11/05 07:38:02;;;;;;;8.45;7.43;;;;;;;10.62;100.00;99740.03;5106706;28;20027;-69
2022/11/05 07:40:28;;;;;;;12.43;7.53;;;;;;;10.55;100.00;99742.47;5123516;27;20071;-69
2022/11/05 07:42:56;;;;;;;8.48;7.57;;;;;;;10.46;100.00;99747.88;5124531;27;20019;-69
2022/11/05 07:45:22;;;;;;;9.73;7.80;;;;;;;10.48;100.00;99751.28;5123984;27;20031;-69
2022/11/05 07:47:50;;;;;;;9.00;7.60;;;;;;;10.57;100.00;99740.50;5124624;27;20026;-69
2022/11/05 07:50:17;;;;;;;9.65;7.90;;;;;;;10.62;100.00;99743.59;5123929;27;20134;-69
2022/11/05 07:52:43;;;;;;;8.02;7.22;;;;;;;10.72;100.00;99747.06;5123578;27;20023;-69
2022/11/05 07:55:09;;;;;;;9.55;7.68;;;;;;;10.59;100.00;99749.25;5123341;27;20378;-69
2022/11/05 07:57:49;;;;;;;9.52;7.80;;;;;;;10.65;100.00;99745.13;5124261;28;20039;-69
2022/11/05 08:00:20;;;;;;;10.48;7.90;;;;;;;10.55;100.00;99758.56;5118172;27;20082;-69
2022/11/05 08:02:56;;;;;;;10.57;7.55;;;;;;;10.54;100.00;99762.22;5122904;27;20119;-69
2022/11/05 08:05:22;;;;;;;10.63;7.32;;;;;;;10.61;100.00;99754.47;5109394;28;20099;-69
2022/11/05 08:07:47;;;;;;;9.20;8.20;;;;;;;10.59;100.00;99751.91;5107808;28;20064;-69
2022/11/05 08:10:13;;;;;;;11.43;7.75;;;;;;;10.50;100.00;99755.47;5110130;28;20051;-69
2022/11/05 08:12:38;;;;;;;11.05;9.18;;;;;;;10.52;100.00;99753.50;5109671;28;20488;-69
2022/11/05 08:15:04;;;;;;;11.88;8.70;;;;;;;10.54;100.00;99758.69;5110748;28;20020;-69
2022/11/05 08:17:29;;;;;;;9.93;8.82;;;;;;;10.52;100.00;99752.66;5109246;28;20067;-68
2022/11/05 08:19:55;;;;;;;10.10;8.30;;;;;;;10.46;100.00;99754.09;5108644;28;20153;-69
2022/11/05 08:22:20;;;;;;;9.05;8.15;;;;;;;10.52;100.00;99764.25;5108876;28;20058;-68
2022/11/05 08:24:46;;;;;;;11.55;7.53;;;;;;;10.54;100.00;99756.00;5109888;28;20836;-69
2022/11/05 08:27:12;;;;;;;11.07;7.47;;;;;;;10.54;100.00;99756.88;5109544;28;20039;-68
2022/11/05 08:29:37;;;;;;;7.30;6.60;;;;;;;10.58;100.00;99749.38;5107029;28;20443;-69
2022/11/05 08:32:02;;;;;;;10.57;7.28;;;;;;;10.77;100.00;99766.22;5106431;27;20406;-69
2022/11/05 08:34:28;;;;;;;8.65;7.63;;;;;;;10.66;100.00;99750.31;5106905;28;20027;-69
2022/11/05 08:36:53;;;;;;;8.05;7.00;;;;;;;10.69;100.00;99755.41;5107391;28;20023;-69
2022/11/05 08:39:19;;;;;;;8.57;7.68;;;;;;;10.56;100.00;99748.69;5106401;27;20035;-69
2022/11/05 08:41:45;;;;;;;8.50;7.40;;;;;;;10.65;100.00;99759.38;5103563;28;20080;-69
2022/11/05 08:44:11;;;;;;;7.90;6.25;;;;;;;10.93;100.00;99768.25;5106629;27;20122;-69
2022/11/05 08:46:37;;;;;;;8.40;7.25;;;;;;;10.80;100.00;99770.44;5106633;28;20084;-70
2022/11/05 08:49:03;;;;;;;9.30;7.78;;;;;;;10.67;100.00;99769.91;5106061;28;20058;-69
2022/11/05 08:51:28;;;;;;;9.88;7.75;;;;;;;10.63;100.00;99776.59;5103475;28;20038;-69
2022/11/05 08:53:54;;;;;;;8.63;7.72;;;;;;;10.67;100.00;99777.97;5107830;27;20035;-69
2022/11/05 08:56:19;;;;;;;8.52;7.63;;;;;;;10.70;100.00;99775.00;5108435;28;20046;-69
2022/11/05 08:58:45;;;;;;;10.63;7.72;;;;;;;10.67;100.00;99778.81;5108116;28;20042;-70
2022/11/05 09:01:10;;;;;;;8.65;7.70;;;;;;;10.72;100.00;99781.91;5108341;28;20019;-70
2022/11/05 09:03:36;;;;;;;8.90;7.93;;;;;;;10.88;100.00;99776.75;5106199;28;20039;-69
2022/11/05 09:06:02;;;;;;;13.13;7.63;;;;;;;10.83;100.00;99772.81;5106226;28;20028;-70
2022/11/05 09:08:27;;;;;;;8.25;7.45;;;;;;;10.93;100.00;99768.25;5107496;28;20028;-70
2022/11/05 09:10:53;;;;;;;8.88;7.50;;;;;;;10.93;100.00;99771.75;5108055;28;20038;-70
2022/11/05 09:13:18;;;;;;;9.13;7.47;;;;;;;11.10;100.00;99773.63;5106768;28;20027;-70
2022/11/05 09:15:45;;;;;;;8.90;7.28;;;;;;;11.06;100.00;99777.63;5106602;27;20031;-70
2022/11/05 09:18:12;;;;;;;8.75;6.75;;;;;;;10.97;100.00;99786.56;5106496;28;20023;-70
2022/11/05 09:20:39;;;;;;;7.13;6.43;;;;;;;11.04;100.00;99778.78;5107490;28;20128;-70
2022/11/05 09:23:05;;;;;;;9.38;7.85;;;;;;;11.04;100.00;99786.81;5108302;28;20024;-69
2022/11/05 09:25:31;;;;;;;8.90;7.10;;;;;;;11.03;100.00;99780.59;5106953;27;20035;-70
2022/11/05 09:28:13;;;;;;;8.50;7.43;;;;;;;10.96;100.00;99771.47;5106689;28;20104;-70
2022/11/05 09:30:46;;;;;;;8.65;7.07;;;;;;;11.08;100.00;99793.56;5107119;28;20405;-65
2022/11/05 09:33:12;;;;;;;8.48;7.30;;;;;;;11.19;100.00;99799.56;5106636;28;20386;-65
2022/11/05 09:35:39;;;;;;;9.32;7.10;;;;;;;11.16;100.00;99799.88;5107034;27;20043;-65
2022/11/05 09:38:05;;;;;;;9.15;7.68;;;;;;;11.11;100.00;99798.63;5107903;28;20027;-65
2022/11/05 09:40:36;;;;;;;7.72;6.90;;;;;;;11.35;100.00;99801.56;5106421;27;20452;-65
2022/11/05 09:43:02;;;;;;;8.05;7.00;;;;;;;11.37;100.00;99788.84;5107518;28;20055;-65
2022/11/05 09:45:32;;;;;;;7.68;6.57;;;;;;;11.38;100.00;99799.44;5107118;28;20035;-65
2022/11/05 09:48:02;;;;;;;8.02;6.78;;;;;;;11.32;100.00;99807.28;5107583;28;20043;-65
2022/11/05 09:50:39;;;;;;;8.73;7.82;;;;;;;11.25;100.00;99809.69;5106862;28;20124;-65
2022/11/05 09:53:05;;;;;;;8.27;7.40;;;;;;;11.26;100.00;99792.59;5107372;28;20103;-65
2022/11/05 09:55:47;;;;;;;8.05;7.22;;;;;;;11.33;100.00;99800.91;5106662;28;20544;-64
2022/11/05 09:58:24;;;;;;;8.00;7.20;;;;;;;11.31;100.00;99801.06;5105619;28;20114;-65
2022/11/05 10:00:51;;;;;;;8.13;7.28;;;;;;;11.37;100.00;99797.75;5107363;28;20433;-65
2022/11/05 10:03:22;;;;;;;28.15;17.98;;;;;;;11.50;100.00;99798.22;5106515;28;20490;-65
2022/11/05 10:05:50;;;;;;;90.00;47.55;;;;;;;11.69;100.00;99799.94;5106971;28;20029;-65
2022/11/05 10:08:28;;;;;;;26.30;18.30;;;;;;;11.71;100.00;99797.09;5106484;28;20463;-65
2022/11/05 10:11:08;;;;;;;20.88;15.10;;;;;;;11.66;100.00;99794.88;5104084;28;20558;-65
2022/11/05 10:13:40;;;;;;;35.30;23.17;;;;;;;11.77;100.00;99807.22;5106391;28;20093;-65
2022/11/05 10:16:19;;;;;;;16.52;11.77;;;;;;;11.74;100.00;99803.03;5106688;28;20019;-65
2022/11/05 10:18:50;;;;;;;10.48;7.80;;;;;;;11.79;100.00;99806.06;5107005;28;20134;-66
2022/11/05 10:21:18;;;;;;;7.85;6.82;;;;;;;11.90;100.00;99807.69;5106589;28;20355;-65
2022/11/05 10:23:47;;;;;;;12.25;7.85;;;;;;;11.78;100.00;99820.50;5104887;28;20116;-65
2022/11/05 10:26:18;;;;;;;7.63;6.38;;;;;;;11.70;100.00;99816.91;5106830;28;20485;-66
2022/11/05 10:28:43;;;;;;;10.75;7.70;;;;;;;11.72;100.00;99823.81;5106600;28;20062;-68
2022/11/05 10:31:13;;;;;;;9.02;7.70;;;;;;;11.69;100.00;99820.56;5107032;28;20513;-65
2022/11/05 10:33:43;;;;;;;11.95;10.40;;;;;;;11.69;100.00;99810.69;5106787;28;20502;-65
2022/11/05 10:36:13;;;;;;;11.55;9.43;;;;;;;11.71;100.00;99813.22;5106925;28;20082;-65
2022/11/05 10:38:38;;;;;;;9.02;8.13;;;;;;;11.71;100.00;99806.00;5106393;28;20508;-66
2022/11/05 10:41:29;;;;;;;12.00;7.88;;;;;;;11.78;100.00;99812.44;5106318;28;20031;-65
2022/11/05 10:44:23;;;;;;;8.68;7.30;;;;;;;11.87;100.00;99808.84;5106469;28;20490;-66
2022/11/05 10:47:02;;;;;;;9.10;8.15;;;;;;;11.94;100.00;99811.75;5095852;28;20035;-65
2022/11/05 10:49:39;;;;;;;14.25;11.32;;;;;;;12.05;100.00;99806.97;5105271;28;20042;-65
2022/11/05 10:52:23;;;;;;;7.65;6.18;;;;;;;12.04;100.00;99810.66;5105115;28;20028;-65
2022/11/05 10:54:51;;;;;;;7.65;6.50;;;;;;;12.13;100.00;99804.34;5106253;28;20074;-66
2022/11/05 10:57:28;;;;;;;7.93;6.60;;;;;;;12.05;100.00;99792.66;5104965;28;20034;-66
2022/11/05 11:00:14;;;;;;;6.50;5.85;;;;;;;12.17;100.00;99804.84;5106284;28;20118;-66
2022/11/05 11:02:41;;;;;;;6.65;5.70;;;;;;;12.22;100.00;99805.25;5106172;28;20040;-65
2022/11/05 11:05:09;;;;;;;7.00;5.78;;;;;;;12.27;100.00;99803.75;5106010;28;20115;-66
2022/11/05 11:07:35;;;;;;;6.32;5.70;;;;;;;12.27;100.00;99805.59;5105900;28;20040;-66
2022/11/05 11:10:01;;;;;;;8.73;5.95;;;;;;;12.33;100.00;99807.66;5106002;28;20118;-66
2022/11/05 11:12:36;;;;;;;6.55;5.93;;;;;;;12.57;100.00;99823.94;5104475;28;20027;-66
2022/11/05 11:15:04;;;;;;;8.63;5.78;;;;;;;12.46;100.00;99816.16;5106824;28;20027;-66
2022/11/05 11:17:31;;;;;;;7.18;5.97;;;;;;;12.32;100.00;99795.22;5104002;28;20043;-66
2022/11/05 11:20:15;;;;;;;7.03;5.97;;;;;;;12.34;100.00;99818.25;5106135;28;20039;-66
2022/11/05 11:22:40;;;;;;;7.77;5.90;;;;;;;12.30;100.00;99811.50;5105877;28;20070;-66
2022/11/05 11:25:24;;;;;;;6.60;5.90;;;;;;;12.38;100.00;99808.03;5106229;28;20722;-66
2022/11/05 11:27:51;;;;;;;7.00;5.80;;;;;;;12.38;100.00;99813.41;5106330;28;20024;-66
2022/11/05 11:30:18;;;;;;;9.70;8.48;;;;;;;12.43;100.00;99811.06;5106138;28;20035;-66
2022/11/05 11:32:46;;;;;;;16.15;11.13;;;;;;;12.46;100.00;99808.94;5105878;28;20517;-66
2022/11/05 11:35:21;;;;;;;10.48;9.07;;;;;;;12.39;100.00;99807.88;5106039;28;20027;-66
2022/11/05 11:37:47;;;;;;;8.50;6.95;;;;;;;12.42;100.00;99820.16;5104345;28;20122;-66
2022/11/05 11:40:22;;;;;;;8.25;7.10;;;;;;;12.47;100.00;99818.69;5105884;28;20027;-66
2022/11/05 11:42:53;;;;;;;9.75;8.75;;;;;;;12.41;100.00;99807.72;5108837;28;20027;-66
2022/11/05 11:45:47;;;;;;;8.13;7.38;;;;;;;12.48;100.00;99814.97;5108961;28;20055;-66
2022/11/05 11:48:20;;;;;;;10.13;7.38;;;;;;;12.61;100.00;99828.00;5107172;28;20122;-66
2022/11/05 11:50:47;;;;;;;7.80;6.43;;;;;;;12.59;100.00;99820.09;5109540;28;20038;-66
2022/11/05 11:53:18;;;;;;;6.25;5.60;;;;;;;12.67;100.00;99830.06;5108189;28;20036;-66
2022/11/05 11:56:02;;;;;;;6.13;5.53;;;;;;;12.65;100.00;99837.44;5109333;28;20023;-66
2022/11/05 11:58:35;;;;;;;6.95;6.03;;;;;;;12.69;100.00;99839.66;5107230;28;20096;-66
2022/11/05 12:01:34;;;;;;;7.75;4.85;;;;;;;12.68;100.00;99842.50;5108153;28;20037;-66
2022/11/05 12:04:21;;;;;;;6.38;5.05;;;;;;;12.69;100.00;99839.66;5082635;28;20088;-66
2022/11/05 12:06:55;;;;;;;7.07;6.13;;;;;;;12.66;100.00;99839.97;5108978;28;20402;-66
2022/11/05 12:09:26;;;;;;;;;;;;;;;12.71;100.00;99842.19;5109185;28;20039;-66
2022/11/05 12:12:09;;;;;;;6.68;5.53;;;;;;;12.78;100.00;99845.94;5108067;28;20002;-66
2022/11/05 12:14:45;;;;;;;7.90;5.60;;;;;;;12.73;100.00;99845.56;5108742;28;20049;-66
2022/11/05 12:18:03;;;;;;;7.90;5.75;;;;;;;12.71;100.00;99842.19;5108931;27;20027;-66
2022/11/05 12:20:44;;;;;;;7.22;6.05;;;;;;;12.80;100.00;99836.69;5044659;27;20050;-66
2022/11/05 12:23:22;;;;;;;7.68;6.40;;;;;;;12.70;100.00;99824.34;5109514;28;20110;-67
2022/11/05 12:26:22;;;;;;;9.93;6.20;;;;;;;12.82;100.00;99839.22;5108960;27;20039;-66
2022/11/05 12:29:02;;;;;;;8.80;6.93;;;;;;;12.95;100.00;99837.78;5081183;28;20043;-66
2022/11/05 12:32:11;;;;;;;9.30;6.47;;;;;;;13.18;98.38;99836.22;5102171;28;20058;-66